Airfield :







YOU CAN JOIN US ON...

 
LOGIN :

Register | Disclaimer

   EN    FR    IT 

 









Legend :    VFR   Marginal VFR   IFR   Intensive IFR   Very Intensive IFR
Visi :
Ceiling :
>= 8 km
>= 3000ft
5 to 8 km
1000 to 3000 ft
1500m to 5 km
500 to 1000 ft
800 to 1500m
200 to 500 ft
< 800m
< 200 ft
Symbols :   Thunderstorms  Fog  Heavy snow  Heavy precipitations  Wind > 20 kt







- Airport Elevation : 930 ft


KEFK - Newport State

CURRENT METAR :
  • 160156Z AUTO 30004KT 10SM BKN050 12/09 A3009 RMK AO2 T01220085

EXPIRED METARs :
  • 160137Z AUTO 29006KT 10SM SCT047 BKN050 12/09 A3009 RMK AO2 T01240085
  • 160116Z AUTO 29005KT 10SM SCT037 BKN044 OVC050 13/09 A3008 RMK AO2 T01280086
  • 160056Z AUTO 29006KT 10SM SCT037 BKN044 OVC050 13/09 A3008 RMK AO2 T01290090
  • 160036Z AUTO 28005KT 10SM SCT027 BKN037 OVC047 13/10 A3008 RMK AO2 T01310095
  • 160017Z AUTO 30006KT 10SM OVC027 13/10 A3008 RMK AO2 T01330097
  • 152356Z AUTO 29005KT 10SM OVC027 14/10 A3008 RMK AO2 T01350101 10175 20134
  • 152336Z AUTO 31004KT 10SM BKN027 BKN032 OVC042 14/10 A3008 RMK AO2 T01350101
  • 152316Z AUTO 28004KT 10SM SCT027 BKN090 OVC120 14/10 A3007 RMK AO2 T01350101

TAF N/A
No reported NOTAMs for that airfield.



MET'MAP, your aeronautical weather chart ! - Copyright ORBIFLY December 2007 - Disclaimer

ORBIFLY MET'MAP TEAM :

Programming & Development : Alexandra Zaïnal
Concept & Development : Baudouin d'Aumeries
Co-Development & Prog : Marc-Olivier Méhu
Technical & hardware support : Manuel Goepfert

Contact : metmap@orbifly.com




SOURCES & CREDITS :

   NOAA